sensor_id;sensor_type;location;lat;lon;timestamp;temperature;humidity
1453;DHT22;720;47.738;7.998;2023-05-15T00:00:26;11.10;99.90
1453;DHT22;720;47.738;7.998;2023-05-15T00:02:52;11.00;99.90
1453;DHT22;720;47.738;7.998;2023-05-15T00:05:18;11.00;99.90
1453;DHT22;720;47.738;7.998;2023-05-15T00:07:44;11.10;99.90
1453;DHT22;720;47.738;7.998;2023-05-15T00:10:09;11.10;99.90
1453;DHT22;720;47.738;7.998;2023-05-15T00:12:35;11.20;99.90
1453;DHT22;720;47.738;7.998;2023-05-15T00:15:01;11.20;99.90
1453;DHT22;720;47.738;7.998;2023-05-15T00:17:26;11.20;99.90
1453;DHT22;720;47.738;7.998;2023-05-15T00:19:52;11.20;99.90
1453;DHT22;720;47.738;7.998;2023-05-15T00:22:22;11.10;99.90
1453;DHT22;720;47.738;7.998;2023-05-15T00:24:47;11.10;99.90
1453;DHT22;720;47.738;7.998;2023-05-15T00:27:13;11.00;99.90
1453;DHT22;720;47.738;7.998;2023-05-15T00:29:39;11.00;99.90
1453;DHT22;720;47.738;7.998;2023-05-15T00:32:04;11.00;99.90
1453;DHT22;720;47.738;7.998;2023-05-15T00:34:30;11.10;99.90
1453;DHT22;720;47.738;7.998;2023-05-15T00:36:56;11.10;99.90
1453;DHT22;720;47.738;7.998;2023-05-15T00:39:21;11.10;99.90
1453;DHT22;720;47.738;7.998;2023-05-15T00:41:49;11.00;99.90
1453;DHT22;720;47.738;7.998;2023-05-15T00:44:16;10.90;99.90
1453;DHT22;720;47.738;7.998;2023-05-15T00:46:45;10.90;99.90
1453;DHT22;720;47.738;7.998;2023-05-15T00:49:11;10.80;99.90
1453;DHT22;720;47.738;7.998;2023-05-15T00:51:41;10.80;99.90
1453;DHT22;720;47.738;7.998;2023-05-15T00:54:08;10.70;99.90
1453;DHT22;720;47.738;7.998;2023-05-15T00:56:34;10.70;99.90
1453;DHT22;720;47.738;7.998;2023-05-15T00:59:02;10.70;99.90
1453;DHT22;720;47.738;7.998;2023-05-15T01:01:28;10.60;99.90
1453;DHT22;720;47.738;7.998;2023-05-15T01:04:02;10.60;99.90
1453;DHT22;720;47.738;7.998;2023-05-15T01:06:28;10.60;99.90
1453;DHT22;720;47.738;7.998;2023-05-15T01:08:56;10.60;99.90
1453;DHT22;720;47.738;7.998;2023-05-15T01:11:24;10.60;99.90
1453;DHT22;720;47.738;7.998;2023-05-15T01:13:50;10.60;99.90
1453;DHT22;720;47.738;7.998;2023-05-15T01:16:15;10.60;99.90
1453;DHT22;720;47.738;7.998;2023-05-15T01:18:41;10.60;99.90
1453;DHT22;720;47.738;7.998;2023-05-15T01:21:40;10.50;99.90
1453;DHT22;720;47.738;7.998;2023-05-15T01:24:37;10.40;99.90
1453;DHT22;720;47.738;7.998;2023-05-15T01:30:01;10.40;99.90
1453;DHT22;720;47.738;7.998;2023-05-15T01:35:44;10.40;99.90
1453;DHT22;720;47.738;7.998;2023-05-15T01:40:47;10.30;99.90
1453;DHT22;720;47.738;7.998;2023-05-15T01:43:21;10.30;99.90
1453;DHT22;720;47.738;7.998;2023-05-15T01:45:48;10.40;99.90
1453;DHT22;720;47.738;7.998;2023-05-15T01:48:14;10.30;99.90
1453;DHT22;720;47.738;7.998;2023-05-15T01:50:44;10.30;99.90
1453;DHT22;720;47.738;7.998;2023-05-15T01:53:10;10.30;99.90
1453;DHT22;720;47.738;7.998;2023-05-15T01:55:37;10.20;99.90
1453;DHT22;720;47.738;7.998;2023-05-15T01:58:04;10.20;99.90
1453;DHT22;720;47.738;7.998;2023-05-15T02:00:32;10.30;99.90
1453;DHT22;720;47.738;7.998;2023-05-15T02:02:58;10.40;99.90
1453;DHT22;720;47.738;7.998;2023-05-15T02:05:24;10.40;99.90
1453;DHT22;720;47.738;7.998;2023-05-15T02:07:51;10.40;99.90
1453;DHT22;720;47.738;7.998;2023-05-15T02:10:17;10.40;99.90
1453;DHT22;720;47.738;7.998;2023-05-15T02:12:44;10.30;99.90
1453;DHT22;720;47.738;7.998;2023-05-15T02:15:10;10.30;99.90
1453;DHT22;720;47.738;7.998;2023-05-15T02:17:37;10.30;99.90
1453;DHT22;720;47.738;7.998;2023-05-15T02:20:04;10.30;99.90
1453;DHT22;720;47.738;7.998;2023-05-15T02:22:33;10.10;99.90
1453;DHT22;720;47.738;7.998;2023-05-15T02:24:58;10.10;99.90
1453;DHT22;720;47.738;7.998;2023-05-15T02:27:26;10.20;99.90
1453;DHT22;720;47.738;7.998;2023-05-15T02:35:55;10.30;99.90
1453;DHT22;720;47.738;7.998;2023-05-15T02:38:30;10.20;99.90
1453;DHT22;720;47.738;7.998;2023-05-15T02:40:57;10.10;99.90
1453;DHT22;720;47.738;7.998;2023-05-15T02:43:24;10.10;99.90
1453;DHT22;720;47.738;7.998;2023-05-15T02:45:51;10.00;99.90
1453;DHT22;720;47.738;7.998;2023-05-15T02:48:18;9.90;99.90
1453;DHT22;720;47.738;7.998;2023-05-15T02:50:44;10.00;99.90
1453;DHT22;720;47.738;7.998;2023-05-15T02:53:10;9.90;99.90
1453;DHT22;720;47.738;7.998;2023-05-15T02:55:38;9.80;99.90
1453;DHT22;720;47.738;7.998;2023-05-15T02:58:04;9.60;99.90
1453;DHT22;720;47.738;7.998;2023-05-15T03:00:30;9.50;99.90
1453;DHT22;720;47.738;7.998;2023-05-15T03:02:55;9.40;99.90
1453;DHT22;720;47.738;7.998;2023-05-15T03:05:21;9.30;99.90
1453;DHT22;720;47.738;7.998;2023-05-15T03:07:47;9.30;99.90
1453;DHT22;720;47.738;7.998;2023-05-15T03:10:12;9.20;99.90
1453;DHT22;720;47.738;7.998;2023-05-15T03:12:38;9.20;99.90
1453;DHT22;720;47.738;7.998;2023-05-15T03:15:05;9.30;99.90
1453;DHT22;720;47.738;7.998;2023-05-15T03:17:31;9.20;99.90
1453;DHT22;720;47.738;7.998;2023-05-15T03:19:57;9.30;99.90
1453;DHT22;720;47.738;7.998;2023-05-15T03:22:22;9.20;99.90
1453;DHT22;720;47.738;7.998;2023-05-15T03:24:48;9.20;99.90
1453;DHT22;720;47.738;7.998;2023-05-15T03:27:14;9.20;99.90
1453;DHT22;720;47.738;7.998;2023-05-15T03:29:40;9.10;99.90
1453;DHT22;720;47.738;7.998;2023-05-15T03:32:06;9.00;99.90
1453;DHT22;720;47.738;7.998;2023-05-15T03:34:32;8.90;99.90
1453;DHT22;720;47.738;7.998;2023-05-15T03:36:57;8.80;99.90
1453;DHT22;720;47.738;7.998;2023-05-15T03:39:23;8.80;99.90
1453;DHT22;720;47.738;7.998;2023-05-15T03:41:48;8.70;99.90
1453;DHT22;720;47.738;7.998;2023-05-15T03:44:14;8.70;99.90
1453;DHT22;720;47.738;7.998;2023-05-15T03:46:39;8.70;99.90
1453;DHT22;720;47.738;7.998;2023-05-15T03:49:05;8.70;99.90
1453;DHT22;720;47.738;7.998;2023-05-15T03:51:31;8.60;99.90
1453;DHT22;720;47.738;7.998;2023-05-15T03:53:56;8.50;99.90
1453;DHT22;720;47.738;7.998;2023-05-15T03:56:22;8.50;99.90
1453;DHT22;720;47.738;7.998;2023-05-15T03:58:48;8.80;99.90
1453;DHT22;720;47.738;7.998;2023-05-15T04:01:13;9.50;99.90
1453;DHT22;720;47.738;7.998;2023-05-15T04:03:39;9.70;99.90
1453;DHT22;720;47.738;7.998;2023-05-15T04:06:05;9.70;99.90
1453;DHT22;720;47.738;7.998;2023-05-15T04:08:30;9.50;99.90
1453;DHT22;720;47.738;7.998;2023-05-15T04:10:56;9.30;99.90
1453;DHT22;720;47.738;7.998;2023-05-15T04:13:22;9.20;99.90
1453;DHT22;720;47.738;7.998;2023-05-15T04:15:47;9.10;99.90
1453;DHT22;720;47.738;7.998;2023-05-15T04:18:13;9.10;99.90
1453;DHT22;720;47.738;7.998;2023-05-15T04:20:38;9.00;99.90
1453;DHT22;720;47.738;7.998;2023-05-15T04:23:04;8.90;99.90
1453;DHT22;720;47.738;7.998;2023-05-15T04:25:31;8.80;99.90
1453;DHT22;720;47.738;7.998;2023-05-15T04:27:57;8.70;99.90
1453;DHT22;720;47.738;7.998;2023-05-15T04:30:22;8.70;99.90
1453;DHT22;720;47.738;7.998;2023-05-15T04:32:48;8.60;99.90
1453;DHT22;720;47.738;7.998;2023-05-15T04:35:16;8.60;99.90
1453;DHT22;720;47.738;7.998;2023-05-15T04:37:42;8.60;99.90
1453;DHT22;720;47.738;7.998;2023-05-15T04:40:10;8.60;99.90
1453;DHT22;720;47.738;7.998;2023-05-15T04:42:36;8.70;99.90
1453;DHT22;720;47.738;7.998;2023-05-15T04:45:02;8.80;99.90
1453;DHT22;720;47.738;7.998;2023-05-15T04:47:28;8.90;99.90
1453;DHT22;720;47.738;7.998;2023-05-15T04:49:54;9.00;99.90
1453;DHT22;720;47.738;7.998;2023-05-15T04:52:19;9.20;99.90
1453;DHT22;720;47.738;7.998;2023-05-15T04:54:45;9.30;99.90
1453;DHT22;720;47.738;7.998;2023-05-15T04:57:12;9.50;99.90
1453;DHT22;720;47.738;7.998;2023-05-15T04:59:38;9.70;99.90
1453;DHT22;720;47.738;7.998;2023-05-15T05:02:03;9.80;99.90
1453;DHT22;720;47.738;7.998;2023-05-15T05:04:29;9.90;99.90
1453;DHT22;720;47.738;7.998;2023-05-15T05:06:55;10.00;99.90
1453;DHT22;720;47.738;7.998;2023-05-15T05:09:21;10.10;99.90
1453;DHT22;720;47.738;7.998;2023-05-15T05:11:47;10.10;99.90
1453;DHT22;720;47.738;7.998;2023-05-15T05:14:14;10.20;99.90
1453;DHT22;720;47.738;7.998;2023-05-15T05:16:43;10.20;99.90
1453;DHT22;720;47.738;7.998;2023-05-15T05:19:09;10.10;99.90
1453;DHT22;720;47.738;7.998;2023-05-15T05:21:35;10.10;99.90
1453;DHT22;720;47.738;7.998;2023-05-15T05:24:00;10.20;99.90
1453;DHT22;720;47.738;7.998;2023-05-15T05:26:26;10.20;99.90
1453;DHT22;720;47.738;7.998;2023-05-15T05:28:52;10.20;99.90
1453;DHT22;720;47.738;7.998;2023-05-15T05:31:18;10.30;99.90
1453;DHT22;720;47.738;7.998;2023-05-15T05:33:43;10.30;99.90
1453;DHT22;720;47.738;7.998;2023-05-15T05:36:09;10.40;99.90
1453;DHT22;720;47.738;7.998;2023-05-15T05:38:35;10.40;99.90
1453;DHT22;720;47.738;7.998;2023-05-15T05:41:01;10.40;99.90
1453;DHT22;720;47.738;7.998;2023-05-15T05:43:27;10.50;99.90
1453;DHT22;720;47.738;7.998;2023-05-15T05:45:53;10.50;99.90
1453;DHT22;720;47.738;7.998;2023-05-15T05:48:19;10.50;99.90
1453;DHT22;720;47.738;7.998;2023-05-15T05:50:44;10.50;99.90
1453;DHT22;720;47.738;7.998;2023-05-15T05:53:10;10.40;99.90
1453;DHT22;720;47.738;7.998;2023-05-15T05:55:36;10.40;99.90
1453;DHT22;720;47.738;7.998;2023-05-15T05:58:02;10.50;99.90
1453;DHT22;720;47.738;7.998;2023-05-15T06:00:27;10.60;99.90
1453;DHT22;720;47.738;7.998;2023-05-15T06:02:58;10.60;99.90
1453;DHT22;720;47.738;7.998;2023-05-15T06:05:27;10.60;99.90
1453;DHT22;720;47.738;7.998;2023-05-15T06:07:53;10.60;99.90
1453;DHT22;720;47.738;7.998;2023-05-15T06:10:19;10.60;99.90
1453;DHT22;720;47.738;7.998;2023-05-15T06:12:46;10.60;99.90
1453;DHT22;720;47.738;7.998;2023-05-15T06:15:12;10.70;99.90
1453;DHT22;720;47.738;7.998;2023-05-15T06:17:38;10.80;99.90
1453;DHT22;720;47.738;7.998;2023-05-15T06:20:04;10.90;99.90
1453;DHT22;720;47.738;7.998;2023-05-15T06:22:35;10.90;99.90
1453;DHT22;720;47.738;7.998;2023-05-15T06:25:01;11.00;99.90
1453;DHT22;720;47.738;7.998;2023-05-15T06:27:27;11.20;99.90
1453;DHT22;720;47.738;7.998;2023-05-15T06:29:53;11.30;99.90
1453;DHT22;720;47.738;7.998;2023-05-15T06:32:19;11.50;99.90
1453;DHT22;720;47.738;7.998;2023-05-15T06:34:45;11.80;99.90
1453;DHT22;720;47.738;7.998;2023-05-15T06:37:11;12.30;99.90
1453;DHT22;720;47.738;7.998;2023-05-15T06:39:36;12.80;99.90
1453;DHT22;720;47.738;7.998;2023-05-15T06:42:02;13.30;99.90
1453;DHT22;720;47.738;7.998;2023-05-15T06:44:29;13.70;99.90
1453;DHT22;720;47.738;7.998;2023-05-15T06:46:56;14.10;99.90
1453;DHT22;720;47.738;7.998;2023-05-15T06:49:22;14.40;98.90
1453;DHT22;720;47.738;7.998;2023-05-15T06:51:48;14.40;97.30
1453;DHT22;720;47.738;7.998;2023-05-15T06:54:14;14.30;97.00
1453;DHT22;720;47.738;7.998;2023-05-15T06:56:39;14.10;97.00
1453;DHT22;720;47.738;7.998;2023-05-15T06:59:05;14.00;96.90
1453;DHT22;720;47.738;7.998;2023-05-15T07:01:31;13.70;97.00
1453;DHT22;720;47.738;7.998;2023-05-15T07:03:56;13.60;97.10
1453;DHT22;720;47.738;7.998;2023-05-15T07:06:22;13.50;97.30
1453;DHT22;720;47.738;7.998;2023-05-15T07:08:48;13.40;97.80
1453;DHT22;720;47.738;7.998;2023-05-15T07:11:14;13.50;98.00
1453;DHT22;720;47.738;7.998;2023-05-15T07:13:39;13.50;98.00
1453;DHT22;720;47.738;7.998;2023-05-15T07:16:05;13.50;98.30
1453;DHT22;720;47.738;7.998;2023-05-15T07:18:31;13.50;98.50
1453;DHT22;720;47.738;7.998;2023-05-15T07:20:56;13.70;98.60
1453;DHT22;720;47.738;7.998;2023-05-15T07:23:22;13.80;98.20
1453;DHT22;720;47.738;7.998;2023-05-15T07:25:48;13.90;98.00
1453;DHT22;720;47.738;7.998;2023-05-15T07:28:13;14.10;98.40
1453;DHT22;720;47.738;7.998;2023-05-15T07:30:40;14.50;98.30
1453;DHT22;720;47.738;7.998;2023-05-15T07:33:06;15.20;98.10
1453;DHT22;720;47.738;7.998;2023-05-15T07:35:31;15.90;96.50
1453;DHT22;720;47.738;7.998;2023-05-15T07:37:57;16.50;96.10
1453;DHT22;720;47.738;7.998;2023-05-15T07:40:22;16.80;94.40
1453;DHT22;720;47.738;7.998;2023-05-15T07:42:48;16.90;94.40
1453;DHT22;720;47.738;7.998;2023-05-15T07:45:14;16.90;93.10
1453;DHT22;720;47.738;7.998;2023-05-15T07:47:47;17.20;93.70
1453;DHT22;720;47.738;7.998;2023-05-15T07:50:14;17.50;93.00
1453;DHT22;720;47.738;7.998;2023-05-15T07:52:40;17.70;93.20
1453;DHT22;720;47.738;7.998;2023-05-15T07:55:07;17.30;92.60
1453;DHT22;720;47.738;7.998;2023-05-15T07:57:32;16.70;93.20
1453;DHT22;720;47.738;7.998;2023-05-15T07:59:58;16.40;94.30
1453;DHT22;720;47.738;7.998;2023-05-15T08:02:23;16.10;94.60
1453;DHT22;720;47.738;7.998;2023-05-15T08:04:49;15.80;95.70
1453;DHT22;720;47.738;7.998;2023-05-15T08:07:15;16.10;95.80
1453;DHT22;720;47.738;7.998;2023-05-15T08:09:40;16.40;95.50
1453;DHT22;720;47.738;7.998;2023-05-15T08:12:17;17.00;94.60
1453;DHT22;720;47.738;7.998;2023-05-15T08:14:54;17.50;93.80
1453;DHT22;720;47.738;7.998;2023-05-15T08:17:20;18.00;93.40
1453;DHT22;720;47.738;7.998;2023-05-15T08:19:47;18.40;93.10
1453;DHT22;720;47.738;7.998;2023-05-15T08:22:13;18.20;93.00
1453;DHT22;720;47.738;7.998;2023-05-15T08:24:39;18.30;92.30
1453;DHT22;720;47.738;7.998;2023-05-15T08:27:05;17.90;92.40
1453;DHT22;720;47.738;7.998;2023-05-15T08:29:31;17.60;93.20
1453;DHT22;720;47.738;7.998;2023-05-15T08:31:57;17.40;93.20
1453;DHT22;720;47.738;7.998;2023-05-15T08:34:23;17.10;93.80
1453;DHT22;720;47.738;7.998;2023-05-15T08:36:49;16.80;94.40
1453;DHT22;720;47.738;7.998;2023-05-15T08:39:15;16.30;94.90
1453;DHT22;720;47.738;7.998;2023-05-15T08:41:47;16.10;95.60
1453;DHT22;720;47.738;7.998;2023-05-15T08:44:15;16.20;95.80
1453;DHT22;720;47.738;7.998;2023-05-15T08:46:42;16.40;96.10
1453;DHT22;720;47.738;7.998;2023-05-15T08:49:29;16.70;95.40
1453;DHT22;720;47.738;7.998;2023-05-15T08:51:57;17.00;95.70
1453;DHT22;720;47.738;7.998;2023-05-15T08:54:23;18.10;95.40
1453;DHT22;720;47.738;7.998;2023-05-15T08:56:50;19.00;93.70
1453;DHT22;720;47.738;7.998;2023-05-15T08:59:16;19.30;92.40
1453;DHT22;720;47.738;7.998;2023-05-15T09:01:42;19.90;90.00
1453;DHT22;720;47.738;7.998;2023-05-15T09:04:08;20.60;88.20
1453;DHT22;720;47.738;7.998;2023-05-15T09:06:35;21.60;87.10
1453;DHT22;720;47.738;7.998;2023-05-15T09:09:01;22.70;83.80
1453;DHT22;720;47.738;7.998;2023-05-15T09:11:31;22.70;82.00
1453;DHT22;720;47.738;7.998;2023-05-15T09:13:58;22.40;81.20
1453;DHT22;720;47.738;7.998;2023-05-15T09:16:24;21.80;80.10
1453;DHT22;720;47.738;7.998;2023-05-15T09:18:51;20.80;80.80
1453;DHT22;720;47.738;7.998;2023-05-15T09:21:29;20.10;85.00
1453;DHT22;720;47.738;7.998;2023-05-15T09:24:19;19.70;83.90
1453;DHT22;720;47.738;7.998;2023-05-15T09:27:02;19.50;87.30
1453;DHT22;720;47.738;7.998;2023-05-15T09:29:30;19.10;85.90
1453;DHT22;720;47.738;7.998;2023-05-15T09:31:56;18.90;88.80
1453;DHT22;720;47.738;7.998;2023-05-15T09:34:30;18.90;88.70
1453;DHT22;720;47.738;7.998;2023-05-15T09:36:57;19.10;87.20
1453;DHT22;720;47.738;7.998;2023-05-15T09:39:23;19.00;86.40
1453;DHT22;720;47.738;7.998;2023-05-15T09:41:50;19.10;84.20
1453;DHT22;720;47.738;7.998;2023-05-15T09:44:18;19.20;86.40
1453;DHT22;720;47.738;7.998;2023-05-15T09:46:44;19.40;86.30
1453;DHT22;720;47.738;7.998;2023-05-15T09:49:10;20.20;83.10
1453;DHT22;720;47.738;7.998;2023-05-15T09:51:36;20.60;84.30
1453;DHT22;720;47.738;7.998;2023-05-15T09:54:02;20.50;81.50
1453;DHT22;720;47.738;7.998;2023-05-15T09:56:28;20.30;83.70
1453;DHT22;720;47.738;7.998;2023-05-15T09:58:55;20.60;81.50
1453;DHT22;720;47.738;7.998;2023-05-15T10:01:25;20.90;79.10
1453;DHT22;720;47.738;7.998;2023-05-15T10:03:57;20.80;79.10
1453;DHT22;720;47.738;7.998;2023-05-15T10:06:23;20.30;79.60
1453;DHT22;720;47.738;7.998;2023-05-15T10:08:53;19.20;84.40
1453;DHT22;720;47.738;7.998;2023-05-15T10:11:19;18.60;84.60
1453;DHT22;720;47.738;7.998;2023-05-15T10:13:46;18.20;87.60
1453;DHT22;720;47.738;7.998;2023-05-15T10:16:13;18.00;89.40
1453;DHT22;720;47.738;7.998;2023-05-15T10:18:40;17.90;90.40
1453;DHT22;720;47.738;7.998;2023-05-15T10:21:07;17.50;90.00
1453;DHT22;720;47.738;7.998;2023-05-15T10:23:35;17.30;90.20
1453;DHT22;720;47.738;7.998;2023-05-15T10:26:06;17.30;91.10
1453;DHT22;720;47.738;7.998;2023-05-15T10:28:34;17.70;91.30
1453;DHT22;720;47.738;7.998;2023-05-15T10:31:01;18.30;90.70
1453;DHT22;720;47.738;7.998;2023-05-15T10:33:28;18.60;90.50
1453;DHT22;720;47.738;7.998;2023-05-15T10:35:55;18.60;90.60
1453;DHT22;720;47.738;7.998;2023-05-15T10:38:22;18.30;91.40
1453;DHT22;720;47.738;7.998;2023-05-15T10:40:48;18.00;91.40
1453;DHT22;720;47.738;7.998;2023-05-15T10:43:19;17.80;92.50
1453;DHT22;720;47.738;7.998;2023-05-15T10:45:45;17.90;92.10
1453;DHT22;720;47.738;7.998;2023-05-15T10:48:12;18.00;92.70
1453;DHT22;720;47.738;7.998;2023-05-15T10:50:38;18.50;92.40
1453;DHT22;720;47.738;7.998;2023-05-15T10:53:04;19.50;92.50
1453;DHT22;720;47.738;7.998;2023-05-15T10:55:30;20.40;88.40
1453;DHT22;720;47.738;7.998;2023-05-15T10:57:56;20.60;84.80
1453;DHT22;720;47.738;7.998;2023-05-15T11:02:47;20.90;84.20
1453;DHT22;720;47.738;7.998;2023-05-15T11:05:13;21.10;80.60
1453;DHT22;720;47.738;7.998;2023-05-15T11:07:39;21.10;84.40
1453;DHT22;720;47.738;7.998;2023-05-15T11:12:56;21.00;80.10
1453;DHT22;720;47.738;7.998;2023-05-15T11:15:23;20.30;79.70
1453;DHT22;720;47.738;7.998;2023-05-15T11:18:04;19.80;83.70
1453;DHT22;720;47.738;7.998;2023-05-15T11:23:09;18.50;83.80
1453;DHT22;720;47.738;7.998;2023-05-15T11:25:35;18.40;85.50
1453;DHT22;720;47.738;7.998;2023-05-15T11:28:04;18.60;85.70
1453;DHT22;720;47.738;7.998;2023-05-15T11:30:37;18.90;86.00
1453;DHT22;720;47.738;7.998;2023-05-15T11:33:10;18.80;86.60
1453;DHT22;720;47.738;7.998;2023-05-15T11:35:41;18.60;85.70
1453;DHT22;720;47.738;7.998;2023-05-15T11:43:34;17.50;86.30
1453;DHT22;720;47.738;7.998;2023-05-15T11:46:04;17.50;88.70
1453;DHT22;720;47.738;7.998;2023-05-15T11:48:32;17.30;86.20
1453;DHT22;720;47.738;7.998;2023-05-15T11:51:00;16.80;88.70
1453;DHT22;720;47.738;7.998;2023-05-15T11:53:27;16.00;90.80
1453;DHT22;720;47.738;7.998;2023-05-15T11:55:53;15.70;91.80
1453;DHT22;720;47.738;7.998;2023-05-15T11:58:20;15.90;91.80
1453;DHT22;720;47.738;7.998;2023-05-15T12:00:48;16.20;92.10
1453;DHT22;720;47.738;7.998;2023-05-15T12:05:41;16.50;90.60
1453;DHT22;720;47.738;7.998;2023-05-15T12:08:11;16.60;90.40
1453;DHT22;720;47.738;7.998;2023-05-15T12:10:45;16.60;89.80
1453;DHT22;720;47.738;7.998;2023-05-15T12:13:12;16.60;90.00
1453;DHT22;720;47.738;7.998;2023-05-15T12:15:41;16.60;90.60
1453;DHT22;720;47.738;7.998;2023-05-15T12:18:07;16.50;91.30
1453;DHT22;720;47.738;7.998;2023-05-15T12:20:34;16.40;90.90
1453;DHT22;720;47.738;7.998;2023-05-15T12:23:04;16.30;90.60
1453;DHT22;720;47.738;7.998;2023-05-15T12:25:34;16.20;90.90
1453;DHT22;720;47.738;7.998;2023-05-15T12:28:04;16.30;90.70
1453;DHT22;720;47.738;7.998;2023-05-15T12:30:31;16.30;91.10
1453;DHT22;720;47.738;7.998;2023-05-15T12:33:05;16.10;90.60
1453;DHT22;720;47.738;7.998;2023-05-15T12:35:35;16.20;91.10
1453;DHT22;720;47.738;7.998;2023-05-15T12:38:04;16.70;91.00
1453;DHT22;720;47.738;7.998;2023-05-15T12:40:34;17.00;88.70
1453;DHT22;720;47.738;7.998;2023-05-15T12:43:07;17.30;89.50
1453;DHT22;720;47.738;7.998;2023-05-15T12:45:33;17.20;87.50
1453;DHT22;720;47.738;7.998;2023-05-15T12:48:00;17.30;87.60
1453;DHT22;720;47.738;7.998;2023-05-15T12:50:26;17.50;88.90
1453;DHT22;720;47.738;7.998;2023-05-15T12:52:56;17.60;86.90
1453;DHT22;720;47.738;7.998;2023-05-15T12:55:24;17.60;87.40
1453;DHT22;720;47.738;7.998;2023-05-15T12:57:51;17.80;88.10
1453;DHT22;720;47.738;7.998;2023-05-15T13:00:17;17.80;87.90
1453;DHT22;720;47.738;7.998;2023-05-15T13:02:47;17.80;87.20
1453;DHT22;720;47.738;7.998;2023-05-15T13:05:13;17.70;87.30
1453;DHT22;720;47.738;7.998;2023-05-15T13:07:43;17.50;88.10
1453;DHT22;720;47.738;7.998;2023-05-15T13:10:09;17.20;88.20
1453;DHT22;720;47.738;7.998;2023-05-15T13:12:43;17.00;90.00
1453;DHT22;720;47.738;7.998;2023-05-15T13:15:25;16.90;91.00
1453;DHT22;720;47.738;7.998;2023-05-15T13:17:52;17.00;90.60
1453;DHT22;720;47.738;7.998;2023-05-15T13:20:21;16.90;90.80
1453;DHT22;720;47.738;7.998;2023-05-15T13:22:46;16.80;91.60
1453;DHT22;720;47.738;7.998;2023-05-15T13:25:16;17.00;91.50
1453;DHT22;720;47.738;7.998;2023-05-15T13:27:43;17.20;90.90
1453;DHT22;720;47.738;7.998;2023-05-15T13:30:09;17.00;90.80
1453;DHT22;720;47.738;7.998;2023-05-15T13:32:35;16.80;91.60
1453;DHT22;720;47.738;7.998;2023-05-15T13:35:02;16.80;91.90
1453;DHT22;720;47.738;7.998;2023-05-15T13:37:29;16.80;91.30
1453;DHT22;720;47.738;7.998;2023-05-15T13:39:55;16.60;91.00
1453;DHT22;720;47.738;7.998;2023-05-15T13:42:21;16.60;90.30
1453;DHT22;720;47.738;7.998;2023-05-15T13:44:46;16.60;89.90
1453;DHT22;720;47.738;7.998;2023-05-15T13:47:12;16.60;90.00
1453;DHT22;720;47.738;7.998;2023-05-15T13:49:37;16.50;87.60
1453;DHT22;720;47.738;7.998;2023-05-15T13:52:03;16.50;90.10
1453;DHT22;720;47.738;7.998;2023-05-15T13:54:30;16.40;89.70
1453;DHT22;720;47.738;7.998;2023-05-15T13:56:56;16.40;90.70
1453;DHT22;720;47.738;7.998;2023-05-15T13:59:21;16.30;89.30
1453;DHT22;720;47.738;7.998;2023-05-15T14:01:47;16.00;89.90
1453;DHT22;720;47.738;7.998;2023-05-15T14:04:12;15.60;90.50
1453;DHT22;720;47.738;7.998;2023-05-15T14:06:38;15.30;91.50
1453;DHT22;720;47.738;7.998;2023-05-15T14:09:04;14.90;91.30
1453;DHT22;720;47.738;7.998;2023-05-15T14:11:31;14.50;91.80
1453;DHT22;720;47.738;7.998;2023-05-15T14:13:57;14.00;92.60
1453;DHT22;720;47.738;7.998;2023-05-15T14:16:23;13.80;92.00
1453;DHT22;720;47.738;7.998;2023-05-15T14:18:48;13.70;91.50
1453;DHT22;720;47.738;7.998;2023-05-15T14:21:14;13.70;92.10
1453;DHT22;720;47.738;7.998;2023-05-15T14:23:39;13.80;93.70
1453;DHT22;720;47.738;7.998;2023-05-15T14:26:05;13.80;96.80
1453;DHT22;720;47.738;7.998;2023-05-15T14:28:31;13.60;98.40
1453;DHT22;720;47.738;7.998;2023-05-15T14:30:56;13.20;99.90
1453;DHT22;720;47.738;7.998;2023-05-15T14:33:22;12.70;99.90
1453;DHT22;720;47.738;7.998;2023-05-15T14:35:47;12.60;99.90
1453;DHT22;720;47.738;7.998;2023-05-15T14:38:13;12.60;99.90
1453;DHT22;720;47.738;7.998;2023-05-15T14:40:39;12.70;99.90
1453;DHT22;720;47.738;7.998;2023-05-15T14:43:06;12.80;99.90
1453;DHT22;720;47.738;7.998;2023-05-15T14:45:32;12.90;99.90
1453;DHT22;720;47.738;7.998;2023-05-15T14:47:58;12.90;99.90
1453;DHT22;720;47.738;7.998;2023-05-15T14:50:23;12.90;99.90
1453;DHT22;720;47.738;7.998;2023-05-15T14:52:49;12.90;99.90
1453;DHT22;720;47.738;7.998;2023-05-15T14:55:14;13.00;99.90
1453;DHT22;720;47.738;7.998;2023-05-15T14:57:46;12.90;99.90
1453;DHT22;720;47.738;7.998;2023-05-15T15:00:14;12.80;99.90
1453;DHT22;720;47.738;7.998;2023-05-15T15:02:41;12.70;99.90
1453;DHT22;720;47.738;7.998;2023-05-15T15:05:07;12.80;99.90
1453;DHT22;720;47.738;7.998;2023-05-15T15:08:05;12.90;99.90
1453;DHT22;720;47.738;7.998;2023-05-15T15:10:32;13.30;99.90
1453;DHT22;720;47.738;7.998;2023-05-15T15:12:58;13.80;99.90
1453;DHT22;720;47.738;7.998;2023-05-15T15:15:25;14.20;99.90
1453;DHT22;720;47.738;7.998;2023-05-15T15:17:51;14.40;99.90
1453;DHT22;720;47.738;7.998;2023-05-15T15:20:19;14.50;99.40
1453;DHT22;720;47.738;7.998;2023-05-15T15:22:46;14.60;99.10
1453;DHT22;720;47.738;7.998;2023-05-15T15:25:12;14.80;99.30
1453;DHT22;720;47.738;7.998;2023-05-15T15:27:38;15.00;99.70
1453;DHT22;720;47.738;7.998;2023-05-15T15:30:06;15.10;99.30
1453;DHT22;720;47.738;7.998;2023-05-15T15:32:32;15.30;98.70
1453;DHT22;720;47.738;7.998;2023-05-15T15:34:58;15.20;98.60
1453;DHT22;720;47.738;7.998;2023-05-15T15:37:25;15.20;99.10
1453;DHT22;720;47.738;7.998;2023-05-15T15:39:51;15.30;99.40
1453;DHT22;720;47.738;7.998;2023-05-15T15:42:17;15.40;99.30
1453;DHT22;720;47.738;7.998;2023-05-15T15:44:43;15.40;99.50
1453;DHT22;720;47.738;7.998;2023-05-15T15:47:08;15.40;99.30
1453;DHT22;720;47.738;7.998;2023-05-15T15:49:34;15.20;99.70
1453;DHT22;720;47.738;7.998;2023-05-15T15:52:00;15.00;99.70
1453;DHT22;720;47.738;7.998;2023-05-15T15:54:26;14.80;99.90
1453;DHT22;720;47.738;7.998;2023-05-15T15:56:51;14.70;99.90
1453;DHT22;720;47.738;7.998;2023-05-15T15:59:17;14.60;99.90
1453;DHT22;720;47.738;7.998;2023-05-15T16:01:43;14.50;99.90
1453;DHT22;720;47.738;7.998;2023-05-15T16:04:08;14.50;99.90
1453;DHT22;720;47.738;7.998;2023-05-15T16:06:35;14.60;99.90
1453;DHT22;720;47.738;7.998;2023-05-15T16:09:02;14.70;99.90
1453;DHT22;720;47.738;7.998;2023-05-15T16:11:28;14.60;99.90
1453;DHT22;720;47.738;7.998;2023-05-15T16:13:54;14.60;99.90
1453;DHT22;720;47.738;7.998;2023-05-15T16:16:20;14.50;99.90
1453;DHT22;720;47.738;7.998;2023-05-15T16:18:45;14.30;99.90
1453;DHT22;720;47.738;7.998;2023-05-15T16:21:11;14.10;99.90
1453;DHT22;720;47.738;7.998;2023-05-15T16:23:37;13.80;99.90
1453;DHT22;720;47.738;7.998;2023-05-15T16:26:06;13.40;99.90
1453;DHT22;720;47.738;7.998;2023-05-15T16:28:33;13.30;99.90
1453;DHT22;720;47.738;7.998;2023-05-15T16:30:59;13.40;99.90
1453;DHT22;720;47.738;7.998;2023-05-15T16:33:25;13.50;99.90
1453;DHT22;720;47.738;7.998;2023-05-15T16:35:51;13.50;99.90
1453;DHT22;720;47.738;7.998;2023-05-15T16:38:17;13.50;99.90
1453;DHT22;720;47.738;7.998;2023-05-15T16:40:44;13.40;99.90
1453;DHT22;720;47.738;7.998;2023-05-15T16:43:09;13.40;99.90
1453;DHT22;720;47.738;7.998;2023-05-15T16:45:35;13.50;99.90
1453;DHT22;720;47.738;7.998;2023-05-15T16:48:01;13.70;99.90